createdAt,value
2022-11-09T00:01:52.794Z,9.30
2022-11-09T00:04:49.613Z,9.53
2022-11-09T00:07:46.440Z,9.32
2022-11-09T00:10:43.248Z,9.44
2022-11-09T00:13:42.841Z,9.34
2022-11-09T00:16:39.638Z,9.25
2022-11-09T00:19:36.714Z,9.14
2022-11-09T00:22:33.524Z,9.23
2022-11-09T00:25:30.763Z,9.50
2022-11-09T00:28:27.574Z,9.44
2022-11-09T00:31:25.222Z,9.44
2022-11-09T00:34:22.043Z,9.21
2022-11-09T00:37:18.924Z,9.13
2022-11-09T00:40:16.119Z,8.92
2022-11-09T00:43:13.020Z,8.82
2022-11-09T00:46:09.848Z,8.64
2022-11-09T00:49:06.859Z,8.41
2022-11-09T00:52:03.763Z,8.24
2022-11-09T00:55:00.684Z,8.19
2022-11-09T00:57:57.508Z,8.06
2022-11-09T01:00:56.245Z,8.10
2022-11-09T01:03:53.122Z,8.04
2022-11-09T01:06:49.981Z,7.96
2022-11-09T01:09:46.818Z,7.93
2022-11-09T01:12:43.638Z,7.82
2022-11-09T01:15:53.772Z,7.86
2022-11-09T01:18:57.134Z,7.71
2022-11-09T01:21:53.939Z,7.59
2022-11-09T01:24:50.764Z,7.53
2022-11-09T01:27:47.567Z,7.47
2022-11-09T01:30:44.410Z,7.27
2022-11-09T01:33:41.862Z,7.16
2022-11-09T01:36:38.677Z,6.95
2022-11-09T01:39:35.583Z,7.23
2022-11-09T01:42:37.255Z,7.00
2022-11-09T01:45:34.088Z,6.95
2022-11-09T01:48:38.953Z,6.98
2022-11-09T01:51:52.108Z,6.78
2022-11-09T01:54:57.257Z,6.74
2022-11-09T01:58:10.017Z,6.92
2022-11-09T02:01:11.197Z,6.64
2022-11-09T02:04:14.555Z,7.01
2022-11-09T02:07:11.758Z,6.76
2022-11-09T02:10:34.019Z,6.64
2022-11-09T02:13:32.101Z,6.63
2022-11-09T02:16:30.040Z,6.63
2022-11-09T02:19:27.191Z,6.74
2022-11-09T02:22:24.096Z,6.79
2022-11-09T02:25:20.993Z,6.79
2022-11-09T02:28:18.008Z,6.81
2022-11-09T02:31:17.287Z,6.83
2022-11-09T02:34:18.002Z,6.89
2022-11-09T02:37:48.572Z,7.41
2022-11-09T02:40:51.904Z,7.58
2022-11-09T02:43:51.698Z,7.44
2022-11-09T02:46:48.541Z,7.63
2022-11-09T02:49:45.346Z,7.73
2022-11-09T02:52:42.264Z,7.67
2022-11-09T02:55:39.069Z,7.78
2022-11-09T02:58:35.953Z,7.94
2022-11-09T03:01:32.850Z,7.87
2022-11-09T03:04:29.751Z,7.94
2022-11-09T03:07:26.835Z,8.04
2022-11-09T03:10:23.702Z,7.89
2022-11-09T03:13:20.913Z,7.99
2022-11-09T03:16:17.927Z,8.01
2022-11-09T03:19:14.941Z,7.90
2022-11-09T03:22:11.776Z,7.84
2022-11-09T03:25:09.081Z,8.06
2022-11-09T03:28:08.629Z,8.14
2022-11-09T03:31:05.817Z,8.10
2022-11-09T03:34:02.631Z,8.07
2022-11-09T03:36:59.557Z,8.02
2022-11-09T03:39:56.361Z,7.81
2022-11-09T03:42:53.245Z,7.82
2022-11-09T03:45:50.138Z,7.81
2022-11-09T03:48:46.972Z,7.81
2022-11-09T03:51:43.815Z,7.82
2022-11-09T03:54:40.621Z,7.76
2022-11-09T03:57:37.497Z,7.81
2022-11-09T04:00:35.837Z,8.07
2022-11-09T04:03:32.639Z,8.04
2022-11-09T04:06:29.547Z,7.99
2022-11-09T04:09:26.435Z,8.01
2022-11-09T04:12:23.312Z,8.12
2022-11-09T04:15:20.315Z,8.20
2022-11-09T04:18:17.480Z,8.18
2022-11-09T04:21:14.356Z,8.10
2022-11-09T04:24:11.164Z,8.11
2022-11-09T04:27:08.014Z,8.06
2022-11-09T04:30:05.586Z,7.98
2022-11-09T04:33:04.113Z,7.98
2022-11-09T04:36:05.521Z,7.96
2022-11-09T04:39:02.403Z,8.01
2022-11-09T04:41:59.236Z,7.97
2022-11-09T04:44:56.054Z,7.94
2022-11-09T04:47:59.030Z,7.99
2022-11-09T04:51:05.146Z,7.96
2022-11-09T04:54:01.988Z,7.95
2022-11-09T04:56:58.791Z,7.97
2022-11-09T04:59:55.860Z,7.97
2022-11-09T05:02:53.153Z,7.99
2022-11-09T05:05:49.957Z,8.02
2022-11-09T05:08:46.788Z,8.00
2022-11-09T05:11:43.628Z,8.01
2022-11-09T05:14:40.452Z,8.01
2022-11-09T05:17:37.305Z,7.95
2022-11-09T05:20:36.180Z,7.99
2022-11-09T05:23:51.559Z,7.98
2022-11-09T05:26:48.605Z,8.01
2022-11-09T05:29:45.658Z,8.00
2022-11-09T05:32:42.484Z,7.99
2022-11-09T05:35:39.391Z,8.00
2022-11-09T05:38:36.272Z,8.03
2022-11-09T05:41:33.162Z,8.03
2022-11-09T05:44:30.587Z,8.12
2022-11-09T05:47:27.458Z,8.12
2022-11-09T05:50:24.390Z,8.26
2022-11-09T05:53:21.669Z,8.19
2022-11-09T05:56:18.867Z,8.26
2022-11-09T05:59:15.683Z,8.20
2022-11-09T06:02:12.574Z,8.23
2022-11-09T06:05:10.100Z,8.23
2022-11-09T06:08:13.615Z,8.46
2022-11-09T06:11:15.740Z,8.70
2022-11-09T06:14:18.690Z,8.65
2022-11-09T06:17:15.781Z,8.59
2022-11-09T06:20:12.624Z,8.73
2022-11-09T06:23:09.540Z,8.81
2022-11-09T06:26:11.638Z,8.61
2022-11-09T06:29:10.050Z,8.73
2022-11-09T06:32:06.990Z,8.77
2022-11-09T06:35:04.211Z,8.84
2022-11-09T06:38:01.633Z,8.83
2022-11-09T06:40:59.895Z,8.86
2022-11-09T06:43:56.765Z,8.83
2022-11-09T06:46:53.592Z,8.84
2022-11-09T06:49:50.420Z,8.73
2022-11-09T06:52:47.535Z,8.75
2022-11-09T06:55:50.197Z,8.76
2022-11-09T06:58:47.977Z,8.80
2022-11-09T07:01:44.846Z,8.71
2022-11-09T07:04:41.749Z,8.75
2022-11-09T07:07:38.610Z,8.78
2022-11-09T07:10:35.520Z,8.82
2022-11-09T07:13:32.619Z,8.89
2022-11-09T07:16:31.305Z,8.96
2022-11-09T07:19:31.763Z,8.96
2022-11-09T07:22:28.832Z,8.81
2022-11-09T07:25:27.205Z,8.92
2022-11-09T07:28:24.139Z,8.99
2022-11-09T07:31:21.470Z,8.98
2022-11-09T07:34:18.269Z,9.05
2022-11-09T07:37:15.108Z,9.04
2022-11-09T07:40:12.752Z,9.11
2022-11-09T07:43:11.706Z,9.06
2022-11-09T07:46:09.132Z,9.07
2022-11-09T07:49:06.643Z,9.09
2022-11-09T07:52:03.707Z,9.05
2022-11-09T07:55:03.774Z,8.99
2022-11-09T07:58:07.717Z,9.03
2022-11-09T08:01:09.955Z,9.04
2022-11-09T08:04:06.868Z,8.99
2022-11-09T08:07:03.733Z,8.90
2022-11-09T08:10:00.576Z,8.83
2022-11-09T08:13:04.858Z,9.00
2022-11-09T08:16:03.015Z,8.89
2022-11-09T08:18:59.833Z,8.83
2022-11-09T08:21:58.046Z,8.92
2022-11-09T08:24:54.954Z,8.91
2022-11-09T08:27:51.887Z,8.86
2022-11-09T08:31:00.442Z,8.97
2022-11-09T08:33:57.754Z,8.97
2022-11-09T08:36:54.584Z,8.95
2022-11-09T08:39:51.482Z,8.96
2022-11-09T08:42:48.717Z,9.09
2022-11-09T08:45:45.633Z,9.06
2022-11-09T08:48:42.604Z,9.02
2022-11-09T08:51:40.137Z,9.01
2022-11-09T08:54:37.136Z,9.02
2022-11-09T08:57:34.426Z,9.09
2022-11-09T09:00:31.561Z,9.09
2022-11-09T09:03:28.867Z,9.14
2022-11-09T09:06:30.642Z,9.17
2022-11-09T09:09:28.303Z,9.15
2022-11-09T09:12:25.321Z,9.28
2022-11-09T09:15:23.536Z,9.31
2022-11-09T09:18:20.828Z,9.43
2022-11-09T09:21:18.490Z,9.34
2022-11-09T09:24:15.500Z,9.53
2022-11-09T09:27:12.358Z,9.62
2022-11-09T09:30:09.791Z,9.71
2022-11-09T09:33:07.172Z,9.56
2022-11-09T09:36:05.060Z,9.71
2022-11-09T09:39:02.199Z,9.65
2022-11-09T09:42:04.876Z,9.67
2022-11-09T09:45:18.037Z,9.78
2022-11-09T09:48:48.891Z,9.75
2022-11-09T09:51:53.158Z,9.71
2022-11-09T09:55:11.645Z,9.87
2022-11-09T09:58:19.264Z,9.91
2022-11-09T10:01:20.714Z,9.84
2022-11-09T10:04:37.799Z,9.88
2022-11-09T10:07:47.933Z,9.81
2022-11-09T10:11:06.995Z,9.95
2022-11-09T10:14:34.413Z,9.93
2022-11-09T10:17:50.367Z,9.76
2022-11-09T10:21:26.448Z,9.90
2022-11-09T10:25:23.779Z,9.84
2022-11-09T10:28:17.262Z,9.77
2022-11-09T10:31:19.743Z,9.83
2022-11-09T10:35:03.720Z,9.90
2022-11-09T10:38:00.583Z,9.89
2022-11-09T10:41:20.278Z,9.82
2022-11-09T10:44:19.608Z,9.89
2022-11-09T10:47:18.167Z,9.90
2022-11-09T10:50:27.812Z,9.92
2022-11-09T10:53:31.384Z,9.82
2022-11-09T10:56:32.960Z,9.81
2022-11-09T10:59:54.639Z,9.88
2022-11-09T11:02:55.548Z,10.01
2022-11-09T11:05:58.771Z,10.01
2022-11-09T11:08:58.222Z,10.05
2022-11-09T11:12:20.493Z,9.99
2022-11-09T11:15:25.519Z,10.11
2022-11-09T11:18:27.349Z,10.17
2022-11-09T11:21:26.166Z,10.14
2022-11-09T11:24:23.309Z,10.17
2022-11-09T11:27:35.517Z,10.22
2022-11-09T11:30:37.426Z,10.22
2022-11-09T11:33:34.637Z,10.20
2022-11-09T11:37:06.656Z,10.28
2022-11-09T11:40:19.158Z,10.18
2022-11-09T11:43:35.611Z,10.18
2022-11-09T11:46:55.200Z,10.22
2022-11-09T11:50:27.357Z,10.14
2022-11-09T11:54:02.244Z,10.16
2022-11-09T11:57:25.264Z,10.19
2022-11-09T12:00:22.365Z,10.21
2022-11-09T12:03:50.914Z,10.24
2022-11-09T12:07:23.856Z,10.31
2022-11-09T12:10:58.695Z,10.39
2022-11-09T12:14:35.466Z,10.50
2022-11-09T12:17:41.104Z,10.61
2022-11-09T12:21:05.112Z,10.61
2022-11-09T12:24:26.124Z,10.61
2022-11-09T12:27:35.135Z,10.57
2022-11-09T12:31:01.560Z,10.58
2022-11-09T12:34:14.967Z,10.49
2022-11-09T12:37:24.067Z,10.60
2022-11-09T12:40:32.686Z,10.72
2022-11-09T12:44:16.909Z,10.70
2022-11-09T12:47:22.527Z,10.86
2022-11-09T12:50:23.467Z,10.79
2022-11-09T12:53:23.774Z,10.75
2022-11-09T12:56:27.203Z,10.87
2022-11-09T12:59:26.943Z,10.79
2022-11-09T13:02:39.069Z,10.90
2022-11-09T13:05:38.659Z,10.89
2022-11-09T13:08:37.200Z,10.89
2022-11-09T13:11:50.626Z,10.88
2022-11-09T13:14:47.618Z,10.82
2022-11-09T13:18:45.933Z,10.79
2022-11-09T13:21:42.910Z,10.79
2022-11-09T13:25:26.045Z,10.85
2022-11-09T13:28:28.928Z,10.93
2022-11-09T13:32:12.568Z,10.98
2022-11-09T13:35:41.037Z,10.95
2022-11-09T13:38:38.454Z,10.91
2022-11-09T13:41:44.357Z,10.93
2022-11-09T13:44:43.349Z,10.89
2022-11-09T13:47:51.789Z,11.06
2022-11-09T13:50:57.198Z,11.17
2022-11-09T13:54:02.352Z,11.08
2022-11-09T13:57:03.415Z,11.07
2022-11-09T14:00:02.171Z,11.04
2022-11-09T14:03:22.588Z,11.11
2022-11-09T14:06:19.739Z,11.14
2022-11-09T14:09:20.219Z,11.11
2022-11-09T14:12:23.331Z,11.04
2022-11-09T14:15:41.932Z,11.02
2022-11-09T14:18:51.758Z,11.06
2022-11-09T14:21:52.448Z,11.10
2022-11-09T14:24:49.823Z,11.05
2022-11-09T14:27:51.290Z,11.06
2022-11-09T14:30:48.128Z,11.03
2022-11-09T14:34:02.493Z,11.05
2022-11-09T14:37:04.559Z,11.05
2022-11-09T14:40:03.241Z,11.06
2022-11-09T14:43:23.605Z,11.01
2022-11-09T14:46:27.436Z,11.03
2022-11-09T14:49:28.918Z,11.01
2022-11-09T14:52:30.955Z,11.08
2022-11-09T14:55:28.503Z,10.96
2022-11-09T14:58:27.246Z,11.00
2022-11-09T15:01:27.061Z,10.96
2022-11-09T15:04:24.642Z,10.94
2022-11-09T15:07:32.751Z,11.00
2022-11-09T15:10:32.447Z,11.03
2022-11-09T15:13:35.210Z,10.95
2022-11-09T15:16:32.263Z,11.06
2022-11-09T15:19:30.676Z,10.98
2022-11-09T15:22:54.604Z,10.95
2022-11-09T15:25:55.835Z,10.96
2022-11-09T15:28:52.758Z,10.94
2022-11-09T15:32:02.475Z,10.90
2022-11-09T15:34:59.989Z,10.92
2022-11-09T15:37:56.999Z,10.94
2022-11-09T15:40:53.810Z,10.89
2022-11-09T15:43:50.872Z,10.95
2022-11-09T15:46:52.170Z,10.87
2022-11-09T15:49:49.403Z,10.80
2022-11-09T15:52:46.417Z,10.87
2022-11-09T15:55:43.390Z,10.87
2022-11-09T15:58:40.260Z,10.86
2022-11-09T16:01:37.634Z,10.87
2022-11-09T16:04:34.530Z,10.86
2022-11-09T16:07:31.633Z,10.85
2022-11-09T16:10:30.400Z,10.89
2022-11-09T16:13:27.237Z,10.82
2022-11-09T16:16:30.535Z,10.81
2022-11-09T16:19:27.692Z,10.83
2022-11-09T16:22:29.509Z,10.85
2022-11-09T16:25:27.613Z,10.76
2022-11-09T16:28:24.576Z,10.77
2022-11-09T16:31:40.972Z,10.70
2022-11-09T16:34:38.351Z,10.84
2022-11-09T16:37:39.929Z,10.74
2022-11-09T16:40:38.351Z,10.73
2022-11-09T16:43:37.465Z,10.68
2022-11-09T16:46:34.734Z,10.68
2022-11-09T16:49:32.235Z,10.66
2022-11-09T16:52:29.101Z,10.68
2022-11-09T16:55:26.252Z,10.70
2022-11-09T16:58:23.884Z,10.75
2022-11-09T17:01:23.460Z,10.65
2022-11-09T17:04:22.241Z,10.73
2022-11-09T17:07:20.478Z,10.61
2022-11-09T17:10:17.457Z,10.60
2022-11-09T17:13:14.568Z,10.67
2022-11-09T17:16:13.865Z,10.57
2022-11-09T17:19:13.629Z,10.52
2022-11-09T17:22:10.575Z,10.62
2022-11-09T17:25:08.090Z,10.57
2022-11-09T17:28:06.187Z,10.57
2022-11-09T17:31:18.052Z,10.50
2022-11-09T17:34:16.428Z,10.47
2022-11-09T17:37:13.393Z,10.48
2022-11-09T17:40:10.758Z,10.46
2022-11-09T17:43:07.737Z,10.46
2022-11-09T17:46:11.219Z,10.43
2022-11-09T17:49:10.319Z,10.45
2022-11-09T17:52:07.399Z,10.38
2022-11-09T17:55:04.522Z,10.38
2022-11-09T17:58:01.359Z,10.46
2022-11-09T18:01:13.775Z,10.43
2022-11-09T18:04:11.536Z,10.34
2022-11-09T18:07:08.442Z,10.38
2022-11-09T18:10:06.040Z,10.40
2022-11-09T18:13:03.479Z,10.38
2022-11-09T18:16:06.903Z,10.37
2022-11-09T18:19:05.307Z,10.36
2022-11-09T18:22:03.125Z,10.33
2022-11-09T18:25:00.590Z,10.33
2022-11-09T18:27:57.559Z,10.29
2022-11-09T18:31:01.456Z,10.25
2022-11-09T18:33:58.318Z,10.16
2022-11-09T18:36:55.202Z,10.25
2022-11-09T18:39:52.039Z,10.13
2022-11-09T18:42:48.885Z,10.10
2022-11-09T18:45:54.083Z,10.11
2022-11-09T18:48:53.314Z,10.19
2022-11-09T18:51:50.133Z,10.14
2022-11-09T18:54:47.143Z,10.15
2022-11-09T18:57:44.022Z,10.16
2022-11-09T19:00:41.792Z,10.08
2022-11-09T19:03:38.605Z,10.06
2022-11-09T19:06:35.637Z,10.16
2022-11-09T19:09:37.101Z,10.08
2022-11-09T19:12:34.002Z,10.15
2022-11-09T19:15:35.134Z,10.13
2022-11-09T19:18:32.520Z,10.14
2022-11-09T19:21:50.747Z,10.10
2022-11-09T19:24:47.741Z,10.08
2022-11-09T19:27:46.761Z,10.10
2022-11-09T19:30:43.595Z,10.07
2022-11-09T19:33:40.503Z,10.09
2022-11-09T19:36:38.342Z,10.07
2022-11-09T19:39:38.047Z,10.03
2022-11-09T19:42:37.635Z,9.99
2022-11-09T19:45:39.387Z,9.91
2022-11-09T19:48:36.589Z,9.97
2022-11-09T19:51:34.853Z,9.99
2022-11-09T19:54:31.688Z,9.94
2022-11-09T19:57:28.591Z,9.89
2022-11-09T20:00:25.516Z,9.89
2022-11-09T20:03:22.337Z,9.85
2022-11-09T20:06:20.553Z,9.87
2022-11-09T20:09:17.400Z,9.81
2022-11-09T20:12:32.688Z,9.85
2022-11-09T20:15:29.524Z,9.78
2022-11-09T20:18:26.439Z,9.77
2022-11-09T20:21:23.347Z,9.73
2022-11-09T20:24:20.273Z,9.71
2022-11-09T20:27:17.150Z,9.68
2022-11-09T20:30:15.108Z,9.67
2022-11-09T20:33:11.953Z,9.70
2022-11-09T20:36:09.447Z,9.65
2022-11-09T20:39:06.283Z,9.71
2022-11-09T20:42:03.185Z,9.72
2022-11-09T20:45:00.092Z,9.74
2022-11-09T20:48:10.503Z,9.70
2022-11-09T20:51:18.793Z,9.66
2022-11-09T20:54:15.733Z,9.66
2022-11-09T20:57:12.740Z,9.60
2022-11-09T21:00:10.631Z,9.60
2022-11-09T21:03:08.634Z,9.67
2022-11-09T21:06:07.536Z,9.64
2022-11-09T21:09:05.620Z,9.71
2022-11-09T21:12:21.041Z,9.71
2022-11-09T21:15:17.945Z,9.72
2022-11-09T21:18:15.023Z,9.72
2022-11-09T21:21:19.484Z,9.73
2022-11-09T21:24:34.566Z,9.74
2022-11-09T21:27:50.115Z,9.72
2022-11-09T21:30:46.968Z,9.75
2022-11-09T21:33:43.803Z,9.71
2022-11-09T21:36:43.535Z,9.72
2022-11-09T21:39:41.193Z,9.72
2022-11-09T21:42:38.004Z,9.71
2022-11-09T21:45:34.842Z,9.65
2022-11-09T21:48:32.012Z,9.66
2022-11-09T21:51:28.841Z,9.72
2022-11-09T21:54:25.928Z,9.68
2022-11-09T21:57:22.761Z,9.69
2022-11-09T22:00:19.630Z,9.69
2022-11-09T22:03:16.450Z,9.71
2022-11-09T22:06:14.679Z,9.69
2022-11-09T22:09:17.991Z,9.67
2022-11-09T22:12:33.429Z,9.67
2022-11-09T22:15:53.320Z,9.69
2022-11-09T22:19:09.161Z,9.64
2022-11-09T22:22:05.974Z,9.65
2022-11-09T22:25:03.173Z,9.67
2022-11-09T22:28:00.483Z,9.63
2022-11-09T22:31:00.869Z,9.67
2022-11-09T22:33:57.745Z,9.65
2022-11-09T22:36:54.578Z,9.65
2022-11-09T22:39:51.450Z,9.65
2022-11-09T22:42:48.250Z,9.68
2022-11-09T22:45:45.336Z,9.63
2022-11-09T22:48:44.245Z,9.63
2022-11-09T22:51:41.083Z,9.58
2022-11-09T22:54:38.026Z,9.58
2022-11-09T22:57:37.051Z,9.60
2022-11-09T23:00:33.889Z,9.55
2022-11-09T23:03:30.720Z,9.54
2022-11-09T23:06:27.630Z,9.51
2022-11-09T23:09:24.476Z,9.49
2022-11-09T23:12:21.314Z,9.44
2022-11-09T23:15:18.161Z,9.48
2022-11-09T23:18:33.313Z,9.37
2022-11-09T23:21:36.308Z,9.36
2022-11-09T23:24:51.706Z,9.35
2022-11-09T23:27:52.600Z,9.34
2022-11-09T23:30:49.449Z,9.37
2022-11-09T23:33:48.337Z,9.38
2022-11-09T23:36:45.193Z,9.34
2022-11-09T23:39:42.012Z,9.38
2022-11-09T23:42:38.824Z,9.35
2022-11-09T23:45:38.019Z,9.33
2022-11-09T23:48:35.123Z,9.32
2022-11-09T23:51:31.953Z,9.35
2022-11-09T23:54:28.767Z,9.30
2022-11-09T23:57:25.589Z,9.32
